TimeCST,TemperatureF,Dew PointF,Humidity,Sea Level PressureIn,VisibilityMPH,Wind Direction,Wind SpeedMPH,Gust SpeedMPH,PrecipitationIn,Events,Conditions,WindDirDegrees,DateUTC
12:00 AM,81,75,76,30.00,12,East,4.6,,,,,100,2012-07-23 06:00:00
3:00 AM,82,77,79,29.98,12,ESE,6.9,,,,Scattered Clouds,110,2012-07-23 09:00:00
5:00 AM,80.6,77.0,89,29.98,6.2,ESE,5.8,-,N/A,,Mostly Cloudy,110,2012-07-23 11:00:00
6:00 AM,80,76,83,30.00,12,East,5.8,,,,,100,2012-07-23 12:00:00
6:00 AM,80.6,75.2,84,29.99,6.2,East,5.8,-,N/A,,Mostly Cloudy,100,2012-07-23 12:00:00
7:00 AM,80.6,75.2,84,30.01,6.2,ESE,3.5,-,N/A,,Mostly Cloudy,110,2012-07-23 13:00:00
8:00 AM,84.2,75.2,74,30.00,6.2,East,4.6,-,N/A,,Mostly Cloudy,100,2012-07-23 14:00:00
9:00 AM,84.2,77.0,79,30.01,6.2,East,8.1,-,N/A,,Mostly Cloudy,90,2012-07-23 15:00:00
10:00 AM,87.8,77.0,70,30.01,6.2,East,12.7,-,N/A,,Mostly Cloudy,100,2012-07-23 16:00:00
11:00 AM,87.8,77.0,70,30.01,6.2,East,12.7,-,N/A,,Mostly Cloudy,90,2012-07-23 17:00:00
12:00 PM,88,78,66,30.01,12,East,12.7,,,,,90,2012-07-23 18:00:00
12:00 PM,87.8,78.8,75,30.00,6.2,East,12.7,-,N/A,,Mostly Cloudy,90,2012-07-23 18:00:00
1:00 PM,87.8,77.0,70,29.98,6.2,East,15.0,-,N/A,,Mostly Cloudy,90,2012-07-23 19:00:00
2:00 PM,80.6,80.6,100,29.97,6.2,East,9.2,-,N/A,Rain,Light Rain Showers,90,2012-07-23 20:00:00
3:00 PM,81,73,70,29.97,11,East,15.0,,,Rain,Light Rain Showers,90,2012-07-23 21:00:00
3:00 PM,80.6,73.4,79,29.97,6.2,East,15.0,-,N/A,Rain,Light Rain Showers,90,2012-07-23 21:00:00
4:00 PM,82.4,75.2,79,29.96,6.2,East,10.4,-,N/A,,Mostly Cloudy,90,2012-07-23 22:00:00
5:00 PM,82.4,77.0,84,29.97,6.2,East,4.6,-,N/A,,Mostly Cloudy,90,2012-07-23 23:00:00
6:00 PM,82,76,79,29.98,12,East,4.6,,,,Partly Cloudy,90,2012-07-24 00:00:00
6:00 PM,82.4,77.0,84,29.98,6.2,East,4.6,-,N/A,,Mostly Cloudy,90,2012-07-24 00:00:00
9:00 PM,82,75,75,30.03,12,East,6.9,,,,Partly Cloudy,90,2012-07-24 03:00:00